»·PEaware :: WAT234 KRNO-KLAS

WAT234 :: KRNO-KLAS

FLIGHT INFORMATION

Flight Status: Arrived
Operator:
Walker Air Transport
More flights by this operator :: More flights under this callsign
Pilot: Eduardo Elias G. (24838)
Aircraft: BOEING 747-400 (WINGLETS)
(B744)
More flights by this aircraft type
Origin: KRNO Reno/Tahoe Intl
United States
Destination: KLAS McCarran Intl
United States
More flights between these airports :: More routes between these airports
Route: ZEFFR6 PESKE LIDAT J92 BTY SUNST4
File this flight plan on PilotEdge
Remarks:
Altitude:
(Current/Filed)
35,000ft
Speed:
(Current/Filed)
476kts
Departed: 07-Sep-20 11:18 AM
Arrived: 07-Sep-20 12:27 PM
Distance/Time
Traveled:
299nm/1:09
Distance/Time
To Go:
Arrived

Flight Plot

Page will automatically refresh every two minutes.

Flight plan parsing failed; only flown route is shown


Map Options




Map Legend


Flown Route
Filed Route
Departure Airport
Arrival Airport
Navaid (VOR, NDB)
Fix

Horizontal Profiles

Position Reports

Time Latitude Longitude Heading Altitude Ground
Speed
07-Sep-20 10:47 39.508519 -119.773591 179 4428ft 0kts
07-Sep-20 10:48 39.508519 -119.773591 179 4428ft 0kts
07-Sep-20 10:49 39.508519 -119.773591 179 4428ft 0kts
07-Sep-20 10:50 39.508519 -119.773591 179 4428ft 0kts
07-Sep-20 10:51 39.508519 -119.773591 179 4428ft 0kts
07-Sep-20 10:52 39.508519 -119.773591 179 4428ft 0kts
07-Sep-20 10:53 39.508519 -119.773591 179 4428ft 0kts
07-Sep-20 10:54 39.508519 -119.773591 179 4428ft 0kts
07-Sep-20 10:56 39.508519 -119.773591 179 4428ft 0kts
07-Sep-20 10:57 39.508519 -119.773591 179 4428ft 0kts
07-Sep-20 10:58 39.508519 -119.773591 179 4428ft 0kts
07-Sep-20 10:59 39.508519 -119.773591 179 4428ft 0kts
07-Sep-20 11:00 39.508519 -119.773591 179 4428ft 0kts
07-Sep-20 11:01 39.508519 -119.773591 179 4428ft 0kts
07-Sep-20 11:02 39.508519 -119.773591 179 4428ft 0kts
07-Sep-20 11:03 39.508519 -119.773591 179 4428ft 0kts
07-Sep-20 11:04 39.508519 -119.773591 179 4428ft 0kts
07-Sep-20 11:05 39.508519 -119.773591 179 4428ft 0kts
07-Sep-20 11:06 39.508519 -119.773591 179 4428ft 0kts
07-Sep-20 11:07 39.508519 -119.773591 179 4428ft 0kts
07-Sep-20 11:08 39.508519 -119.773591 179 4428ft 0kts
07-Sep-20 11:09 39.508519 -119.773591 179 4428ft 0kts
07-Sep-20 11:10 39.508519 -119.773591 179 4428ft 0kts
07-Sep-20 11:11 39.508518 -119.773591 179 4428ft 0kts
07-Sep-20 11:12 39.508517 -119.773591 179 4428ft 0kts
07-Sep-20 11:13 39.508295 -119.773550 155 4428ft 9kts
07-Sep-20 11:14 39.510454 -119.771504 0 4428ft 18kts
07-Sep-20 11:14 39.513786 -119.769926 93 4428ft 18kts
07-Sep-20 11:15 39.513740 -119.768143 89 4428ft 0kts
07-Sep-20 11:17 39.513248 -119.766721 181 4428ft 5kts
07-Sep-20 11:18 39.472783 -119.767165 183 6587ft 196kts
07-Sep-20 11:18 39.421107 -119.769458 180 8270ft 261kts
07-Sep-20 11:19 39.339813 -119.768817 172 10793ft 316kts
07-Sep-20 11:20 39.262746 -119.691014 130 12568ft 405kts
07-Sep-20 11:21 39.186912 -119.577886 131 16150ft 430kts
07-Sep-20 11:22 39.101407 -119.464276 136 18845ft 448kts
07-Sep-20 11:23 39.010344 -119.352730 135 20441ft 458kts
07-Sep-20 11:24 38.917096 -119.236783 135 22930ft 485kts
07-Sep-20 11:25 38.815361 -119.111820 135 24593ft 519kts
07-Sep-20 11:26 38.712122 -118.978411 131 26526ft 533kts
07-Sep-20 11:27 38.609579 -118.838383 132 28113ft 545kts
07-Sep-20 11:28 38.504511 -118.696079 131 29348ft 554kts
07-Sep-20 11:29 38.398403 -118.552641 132 30762ft 554kts
07-Sep-20 11:30 38.292752 -118.410984 132 32332ft 550kts
07-Sep-20 11:31 38.187305 -118.270292 132 33713ft 547kts
07-Sep-20 11:32 38.082385 -118.130927 132 35001ft 544kts
07-Sep-20 11:33 37.977326 -117.991989 133 35167ft 545kts
07-Sep-20 11:34 37.872125 -117.853478 133 35170ft 545kts
07-Sep-20 11:35 37.767036 -117.715715 133 35174ft 545kts
07-Sep-20 11:36 37.661737 -117.578272 133 35174ft 542kts
07-Sep-20 11:37 37.563293 -117.449911 133 34897ft 477kts
07-Sep-20 11:38 37.473921 -117.334486 133 33063ft 452kts
07-Sep-20 11:39 37.382007 -117.235171 145 31902ft 429kts
07-Sep-20 11:40 37.283072 -117.153180 145 30698ft 421kts
07-Sep-20 11:41 37.186495 -117.071938 145 29547ft 414kts
07-Sep-20 11:42 37.091859 -116.991869 145 28396ft 408kts
07-Sep-20 11:43 36.998889 -116.913302 145 27411ft 400kts
07-Sep-20 11:44 36.907437 -116.836793 145 26196ft 391kts
07-Sep-20 11:45 36.818016 -116.762183 145 24402ft 380kts
07-Sep-20 11:46 36.744811 -116.669977 129 23559ft 375kts
07-Sep-20 11:47 36.676926 -116.571809 130 22945ft 370kts
07-Sep-20 11:48 36.609684 -116.475316 130 22337ft 368kts
07-Sep-20 11:49 36.542364 -116.380151 130 21733ft 363kts
07-Sep-20 11:50 36.475929 -116.286478 130 21146ft 359kts
07-Sep-20 11:51 36.409713 -116.193211 130 20038ft 354kts
07-Sep-20 11:52 36.345929 -116.103204 131 18796ft 342kts
07-Sep-20 11:53 36.283389 -116.015766 131 17700ft 336kts
07-Sep-20 11:54 36.221494 -115.929504 131 16488ft 332kts
07-Sep-20 11:55 36.177524 -115.831347 109 15441ft 325kts
07-Sep-20 11:56 36.145071 -115.727242 110 14433ft 322kts
07-Sep-20 11:57 36.112027 -115.624825 109 13419ft 318kts
07-Sep-20 11:58 36.082432 -115.532525 106 12633ft 266kts
07-Sep-20 11:59 36.073410 -115.442827 92 10702ft 265kts
07-Sep-20 12:00 36.068014 -115.352417 91 8368ft 254kts
07-Sep-20 12:01 36.069223 -115.267350 86 6475ft 242kts
07-Sep-20 12:02 36.073446 -115.184978 90 3038ft 234kts
07-Sep-20 12:03 36.071879 -115.118846 88 2636ft 177kts
07-Sep-20 12:04 36.065376 -115.046134 101 4241ft 221kts
07-Sep-20 12:05 36.050642 -114.972940 102 6592ft 223kts
07-Sep-20 12:06 36.035984 -114.898130 102 6984ft 224kts
07-Sep-20 12:07 36.014811 -114.826696 143 6950ft 223kts
07-Sep-20 12:08 35.970029 -114.856576 262 6985ft 219kts
07-Sep-20 12:09 35.970928 -114.931795 272 6974ft 218kts
07-Sep-20 12:10 35.972344 -115.006977 272 6982ft 218kts
07-Sep-20 12:11 35.973522 -115.081980 273 6999ft 218kts
07-Sep-20 12:12 36.017257 -115.112372 9 7019ft 216kts
07-Sep-20 12:13 36.075755 -115.094535 18 6971ft 216kts
07-Sep-20 12:14 36.127533 -115.054884 32 6951ft 221kts
07-Sep-20 12:15 36.177931 -115.013137 32 6925ft 218kts
07-Sep-20 12:16 36.228468 -114.971327 32 6921ft 217kts
07-Sep-20 12:17 36.279190 -114.929330 32 6918ft 218kts
07-Sep-20 12:18 36.329684 -114.887450 32 6928ft 218kts
07-Sep-20 12:19 36.383284 -114.870325 321 6757ft 213kts
07-Sep-20 12:20 36.370835 -114.931130 218 5954ft 220kts
07-Sep-20 12:21 36.316646 -114.970589 213 5911ft 231kts
07-Sep-20 12:22 36.263235 -115.014385 215 4909ft 219kts
07-Sep-20 12:23 36.211833 -115.058501 215 4919ft 228kts
07-Sep-20 12:24 36.163701 -115.099568 216 4969ft 186kts
07-Sep-20 12:25 36.122319 -115.138163 218 2961ft 184kts
07-Sep-20 12:26 36.084429 -115.161722 205 2194ft 36kts
07-Sep-20 12:27 36.081603 -115.161699 85 2194ft 0kts

Navigation Log

Ident Type
Flight plan parsing failed, navigation log unavailable